createdAt,value
2018-04-19T00:02:20.489Z,20.20
2018-04-19T00:04:48.622Z,21.17
2018-04-19T00:07:16.746Z,20.40
2018-04-19T00:09:44.890Z,20.83
2018-04-19T00:12:13.008Z,19.23
2018-04-19T00:14:41.918Z,19.17
2018-04-19T00:17:10.030Z,19.40
2018-04-19T00:19:38.162Z,19.47
2018-04-19T00:22:06.270Z,20.10
2018-04-19T00:24:34.404Z,19.53
2018-04-19T00:27:02.521Z,18.40
2018-04-19T00:29:30.657Z,19.10
2018-04-19T00:31:58.793Z,19.73
2018-04-19T00:34:26.942Z,21.10
2018-04-19T00:36:55.069Z,19.40
2018-04-19T00:39:23.242Z,20.27
2018-04-19T00:41:52.130Z,20.97
2018-04-19T00:44:21.001Z,19.53
2018-04-19T00:46:49.137Z,20.40
2018-04-19T00:49:17.262Z,21.60
2018-04-19T00:51:46.157Z,20.13
2018-04-19T00:54:15.033Z,20.90
2018-04-19T00:56:43.164Z,20.33
2018-04-19T00:59:11.264Z,20.77
2018-04-19T01:01:39.400Z,20.87
2018-04-19T01:04:07.533Z,21.83
2018-04-19T01:06:36.445Z,22.13
2018-04-19T01:09:04.554Z,21.20
2018-04-19T01:11:32.694Z,20.20
2018-04-19T01:14:00.811Z,21.47
2018-04-19T01:16:28.950Z,21.03
2018-04-19T01:18:57.074Z,21.83
2018-04-19T01:21:25.222Z,20.60
2018-04-19T01:23:53.330Z,21.30
2018-04-19T01:26:22.238Z,20.30
2018-04-19T01:28:51.116Z,21.93
2018-04-19T01:31:20.035Z,23.77
2018-04-19T01:33:48.141Z,22.77
2018-04-19T01:36:24.942Z,23.63
2018-04-19T01:38:53.044Z,26.07
2018-04-19T01:41:21.177Z,21.87
2018-04-19T01:43:49.294Z,22.53
2018-04-19T01:46:17.431Z,20.03
2018-04-19T01:48:45.544Z,21.13
2018-04-19T01:51:13.681Z,21.10
2018-04-19T01:53:42.370Z,20.20
2018-04-19T01:56:10.815Z,23.93
2018-04-19T01:58:38.935Z,23.53
2018-04-19T02:01:07.842Z,23.10
2018-04-19T02:03:35.961Z,25.23
2018-04-19T02:06:04.094Z,26.80
2018-04-19T02:08:32.197Z,24.80
2018-04-19T02:11:00.335Z,22.13
2018-04-19T02:13:28.462Z,22.03
2018-04-19T02:15:56.589Z,24.67
2018-04-19T02:18:24.701Z,22.30
2018-04-19T02:20:52.843Z,23.60
2018-04-19T02:23:20.948Z,25.00
2018-04-19T02:25:49.087Z,23.90
2018-04-19T02:28:17.216Z,24.37
2018-04-19T02:30:45.358Z,23.07
2018-04-19T02:33:13.558Z,21.93
2018-04-19T02:35:41.820Z,21.60
2018-04-19T02:38:09.845Z,19.90
2018-04-19T02:40:38.000Z,22.23
2018-04-19T02:43:11.902Z,22.53
2018-04-19T02:45:41.831Z,21.70
2018-04-19T02:48:10.718Z,22.10
2018-04-19T02:50:40.721Z,23.50
2018-04-19T02:53:15.563Z,23.37
2018-04-19T02:55:43.789Z,25.97
2018-04-19T02:58:14.973Z,21.07
2018-04-19T03:00:44.911Z,22.90
2018-04-19T03:03:20.022Z,21.03
2018-04-19T03:05:48.584Z,21.07
2018-04-19T03:08:17.278Z,20.90
2018-04-19T03:10:52.139Z,23.03
2018-04-19T03:13:22.055Z,21.30
2018-04-19T03:15:55.954Z,22.77
2018-04-19T03:18:24.829Z,22.03
2018-04-19T03:20:55.702Z,23.07
2018-04-19T03:23:24.773Z,21.03
2018-04-19T03:25:55.814Z,22.50
2018-04-19T03:28:28.824Z,22.83
2018-04-19T03:31:13.635Z,22.60
2018-04-19T03:33:44.708Z,22.47
2018-04-19T03:36:12.820Z,24.07
2018-04-19T03:38:45.086Z,23.90
2018-04-19T03:41:18.320Z,25.50
2018-04-19T03:43:46.434Z,26.87
2018-04-19T03:46:15.594Z,25.73
2018-04-19T03:48:46.777Z,24.17
2018-04-19T03:51:15.660Z,23.40
2018-04-19T03:53:46.840Z,24.80
2018-04-19T03:56:25.712Z,22.00
2018-04-19T03:58:55.865Z,20.53
2018-04-19T04:01:25.857Z,22.27
2018-04-19T04:03:54.100Z,22.77
2018-04-19T04:06:23.021Z,23.80
2018-04-19T04:08:57.057Z,23.43
2018-04-19T04:11:26.215Z,22.10
2018-04-19T04:13:56.169Z,21.60
2018-04-19T04:16:48.537Z,23.43
2018-04-19T04:19:29.615Z,24.10
2018-04-19T04:22:10.678Z,21.70
2018-04-19T04:24:38.814Z,23.27
2018-04-19T04:27:11.323Z,21.03
2018-04-19T04:29:48.541Z,27.00
2018-04-19T04:32:18.103Z,23.73
2018-04-19T04:34:47.159Z,20.10
2018-04-19T04:37:20.078Z,21.57
2018-04-19T04:39:49.031Z,22.37
2018-04-19T04:42:18.471Z,24.17
2018-04-19T04:44:49.212Z,21.50
2018-04-19T04:47:19.725Z,23.70
2018-04-19T04:49:47.880Z,22.57
2018-04-19T04:52:24.519Z,26.60
2018-04-19T04:54:52.656Z,24.00
2018-04-19T04:57:23.305Z,23.33
2018-04-19T04:59:52.354Z,25.10
2018-04-19T05:02:21.777Z,26.70
2018-04-19T05:04:50.690Z,24.67
2018-04-19T05:07:20.076Z,22.67
2018-04-19T05:09:52.035Z,23.23
2018-04-19T05:12:20.158Z,23.67
2018-04-19T05:14:51.914Z,21.90
2018-04-19T05:17:21.330Z,23.03
2018-04-19T05:19:51.844Z,23.70
2018-04-19T05:22:20.014Z,22.00
2018-04-19T05:24:50.681Z,22.53
2018-04-19T05:27:36.741Z,23.17
2018-04-19T05:30:09.794Z,20.40
2018-04-19T05:32:40.625Z,22.17
2018-04-19T05:35:08.973Z,22.07
2018-04-19T05:37:37.333Z,21.97
2018-04-19T05:40:07.675Z,24.87
2018-04-19T05:42:39.215Z,23.43
2018-04-19T05:45:08.197Z,23.07
2018-04-19T05:47:40.803Z,20.93
2018-04-19T05:50:23.817Z,21.53
2018-04-19T05:52:52.321Z,25.00
2018-04-19T05:55:24.452Z,24.00
2018-04-19T05:57:54.820Z,22.70
2018-04-19T06:00:34.563Z,20.63
2018-04-19T06:03:10.442Z,22.80
2018-04-19T06:05:39.857Z,22.60
2018-04-19T06:08:09.067Z,22.30
2018-04-19T06:10:40.297Z,20.77
2018-04-19T06:13:09.213Z,21.77
2018-04-19T06:15:44.511Z,20.57
2018-04-19T06:18:16.997Z,20.03
2018-04-19T06:20:46.382Z,20.23
2018-04-19T06:23:16.737Z,19.67
2018-04-19T06:25:48.246Z,19.43
2018-04-19T06:28:18.425Z,20.53
2018-04-19T06:30:49.499Z,20.03
2018-04-19T06:33:19.424Z,18.93
2018-04-19T06:35:51.673Z,19.40
2018-04-19T06:38:22.192Z,18.53
2018-04-19T06:40:52.689Z,19.70
2018-04-19T06:43:22.067Z,19.50
2018-04-19T06:46:02.627Z,19.47
2018-04-19T06:48:32.750Z,21.10
2018-04-19T06:51:02.140Z,18.53
2018-04-19T06:53:35.706Z,19.90
2018-04-19T06:56:07.713Z,19.30
2018-04-19T06:58:37.079Z,20.10
2018-04-19T07:01:09.438Z,20.40
2018-04-19T07:03:45.810Z,19.67
2018-04-19T07:06:18.232Z,19.07
2018-04-19T07:08:49.878Z,19.70
2018-04-19T07:11:19.274Z,19.77
2018-04-19T07:13:48.639Z,18.60
2018-04-19T07:16:18.596Z,19.10
2018-04-19T07:18:50.343Z,19.83
2018-04-19T07:21:20.268Z,19.70
2018-04-19T07:23:49.672Z,19.58
2018-04-19T07:26:29.303Z,19.50
2018-04-19T07:29:01.604Z,18.80
2018-04-19T07:31:34.690Z,20.80
2018-04-19T07:34:06.907Z,19.40
2018-04-19T07:36:37.124Z,19.40
2018-04-19T07:39:06.620Z,20.40
2018-04-19T07:41:41.395Z,19.60
2018-04-19T07:44:11.731Z,19.73
2018-04-19T07:46:44.045Z,19.63
2018-04-19T07:49:13.404Z,20.50
2018-04-19T07:51:47.431Z,20.80
2018-04-19T07:54:22.612Z,18.73
2018-04-19T07:56:57.720Z,19.70
2018-04-19T07:59:32.880Z,20.10
2018-04-19T08:02:07.981Z,18.03
2018-04-19T08:04:43.103Z,19.30
2018-04-19T08:07:18.282Z,18.03
2018-04-19T08:09:53.434Z,24.60
2018-04-19T08:12:28.530Z,17.83
2018-04-19T08:14:57.956Z,19.10
2018-04-19T08:17:27.307Z,18.27
2018-04-19T08:19:56.722Z,17.47
2018-04-19T08:22:26.088Z,16.83
2018-04-19T08:24:55.479Z,16.50
2018-04-19T08:27:24.845Z,15.70
2018-04-19T08:29:54.234Z,15.60
2018-04-19T08:32:23.593Z,15.83
2018-04-19T08:34:52.996Z,17.53
2018-04-19T08:37:22.368Z,16.23
2018-04-19T08:39:51.739Z,15.13
2018-04-19T08:42:21.107Z,16.47
2018-04-19T08:44:50.504Z,15.93
2018-04-19T08:47:19.878Z,15.97
2018-04-19T08:49:49.486Z,17.23
2018-04-19T08:52:18.841Z,17.03
2018-04-19T08:54:48.236Z,17.00
2018-04-19T08:57:17.587Z,16.67
2018-04-19T08:59:47.356Z,15.17
2018-04-19T09:02:16.813Z,16.50
2018-04-19T09:04:46.192Z,17.07
2018-04-19T09:07:16.330Z,17.20
2018-04-19T09:09:45.707Z,16.40
2018-04-19T09:12:15.082Z,13.90
2018-04-19T09:14:44.474Z,16.43
2018-04-19T09:17:13.891Z,16.93
2018-04-19T09:19:43.263Z,16.87
2018-04-19T09:22:12.623Z,16.30
2018-04-19T09:24:42.092Z,15.70
2018-04-19T09:27:11.477Z,17.47
2018-04-19T09:29:40.857Z,16.20
2018-04-19T09:32:10.242Z,16.40
2018-04-19T09:34:39.603Z,16.03
2018-04-19T09:37:08.984Z,16.50
2018-04-19T09:39:38.344Z,17.70
2018-04-19T09:42:07.723Z,16.77
2018-04-19T09:44:37.170Z,14.93
2018-04-19T09:47:06.557Z,14.50
2018-04-19T09:49:35.916Z,15.40
2018-04-19T09:52:05.388Z,14.20
2018-04-19T09:54:34.871Z,14.10
2018-04-19T09:57:04.306Z,14.70
2018-04-19T09:59:33.657Z,13.83
2018-04-19T10:02:03.975Z,13.90
2018-04-19T10:04:33.340Z,14.13
2018-04-19T10:07:02.771Z,14.43
2018-04-19T10:09:32.133Z,13.90
2018-04-19T10:12:01.521Z,13.17
2018-04-19T10:14:30.874Z,13.37
2018-04-19T10:17:02.041Z,12.20
2018-04-19T10:19:31.402Z,14.27
2018-04-19T10:22:00.792Z,12.30
2018-04-19T10:24:30.169Z,12.60
2018-04-19T10:26:59.574Z,13.30
2018-04-19T10:29:28.931Z,12.03
2018-04-19T10:31:58.321Z,12.20
2018-04-19T10:34:27.680Z,10.87
2018-04-19T10:36:57.073Z,11.17
2018-04-19T10:39:26.440Z,13.40
2018-04-19T10:41:55.824Z,11.23
2018-04-19T10:44:25.187Z,10.27
2018-04-19T10:46:54.564Z,9.80
2018-04-19T10:49:23.938Z,9.13
2018-04-19T10:51:53.313Z,9.00
2018-04-19T10:54:22.663Z,8.00
2018-04-19T10:56:52.048Z,9.60
2018-04-19T10:59:22.820Z,10.30
2018-04-19T11:01:52.212Z,9.70
2018-04-19T11:04:26.551Z,8.80
2018-04-19T11:06:56.903Z,9.57
2018-04-19T11:09:26.426Z,10.77
2018-04-19T11:11:55.800Z,8.50
2018-04-19T11:14:25.167Z,9.60
2018-04-19T11:16:54.543Z,10.97
2018-04-19T11:19:23.910Z,10.37
2018-04-19T11:21:53.283Z,10.03
2018-04-19T11:24:22.648Z,12.00
2018-04-19T11:26:52.039Z,10.10
2018-04-19T11:29:21.402Z,10.30
2018-04-19T11:31:50.790Z,11.07
2018-04-19T11:34:20.161Z,11.93
2018-04-19T11:36:49.550Z,10.20
2018-04-19T11:39:18.907Z,11.23
2018-04-19T11:41:48.308Z,11.13
2018-04-19T11:44:17.664Z,11.20
2018-04-19T11:46:47.052Z,11.90
2018-04-19T11:49:16.432Z,11.57
2018-04-19T11:51:45.847Z,12.20
2018-04-19T11:54:15.218Z,12.13
2018-04-19T11:56:44.608Z,10.80
2018-04-19T11:59:13.972Z,11.17
2018-04-19T12:01:43.360Z,11.50
2018-04-19T12:04:12.734Z,11.90
2018-04-19T12:06:42.119Z,11.30
2018-04-19T12:09:11.484Z,11.60
2018-04-19T12:11:40.865Z,10.40
2018-04-19T12:14:10.252Z,11.70
2018-04-19T12:16:39.640Z,10.90
2018-04-19T12:19:09.050Z,11.10
2018-04-19T12:21:38.417Z,10.33
2018-04-19T12:24:07.777Z,11.10
2018-04-19T12:26:37.206Z,10.73
2018-04-19T12:29:06.587Z,10.60
2018-04-19T12:31:36.186Z,9.87
2018-04-19T12:34:05.712Z,10.90
2018-04-19T12:36:35.145Z,10.67
2018-04-19T12:39:04.521Z,9.90
2018-04-19T12:41:33.914Z,10.50
2018-04-19T12:44:03.277Z,10.07
2018-04-19T12:46:32.651Z,10.60
2018-04-19T12:49:02.067Z,9.77
2018-04-19T12:51:31.501Z,11.03
2018-04-19T12:54:00.850Z,11.50
2018-04-19T12:56:30.307Z,10.97
2018-04-19T12:58:59.630Z,10.63
2018-04-19T13:01:29.024Z,10.67
2018-04-19T13:03:59.085Z,9.73
2018-04-19T13:06:28.644Z,9.47
2018-04-19T13:08:58.026Z,9.03
2018-04-19T13:11:27.797Z,9.53
2018-04-19T13:13:58.654Z,10.77
2018-04-19T13:16:29.613Z,9.90
2018-04-19T13:18:59.993Z,9.10
2018-04-19T13:21:30.121Z,9.43
2018-04-19T13:23:59.522Z,8.80
2018-04-19T13:26:29.275Z,8.93
2018-04-19T13:28:58.654Z,9.23
2018-04-19T13:31:29.335Z,10.43
2018-04-19T13:33:58.694Z,10.10
2018-04-19T13:36:28.101Z,10.93
2018-04-19T13:38:57.453Z,9.90
2018-04-19T13:41:26.827Z,11.20
2018-04-19T13:44:06.130Z,11.47
2018-04-19T13:46:36.316Z,10.57
2018-04-19T13:49:05.719Z,11.33
2018-04-19T13:51:35.108Z,11.30
2018-04-19T13:54:04.513Z,10.20
2018-04-19T13:56:33.899Z,12.90
2018-04-19T13:59:03.302Z,14.03
2018-04-19T14:01:32.723Z,15.10
2018-04-19T14:04:02.089Z,14.60
2018-04-19T14:06:31.459Z,14.53
2018-04-19T14:09:00.832Z,12.03
2018-04-19T14:11:30.215Z,11.03
2018-04-19T14:13:59.571Z,10.53
2018-04-19T14:16:29.062Z,13.50
2018-04-19T14:18:58.425Z,13.30
2018-04-19T14:21:27.809Z,11.30
2018-04-19T14:24:03.115Z,13.20
2018-04-19T14:26:32.493Z,12.30
2018-04-19T14:29:01.846Z,11.33
2018-04-19T14:31:31.237Z,12.60
2018-04-19T14:34:00.602Z,12.43
2018-04-19T14:36:29.984Z,14.10
2018-04-19T14:38:59.356Z,14.40
2018-04-19T14:41:28.829Z,16.57
2018-04-19T14:43:58.200Z,13.13
2018-04-19T14:46:27.572Z,12.67
2018-04-19T14:48:56.934Z,14.30
2018-04-19T14:51:26.307Z,16.03
2018-04-19T14:53:55.663Z,17.60
2018-04-19T14:56:25.044Z,16.87
2018-04-19T14:58:57.072Z,15.80
2018-04-19T15:01:26.458Z,16.87
2018-04-19T15:03:55.819Z,18.07
2018-04-19T15:06:25.214Z,15.07
2018-04-19T15:08:54.572Z,16.93
2018-04-19T15:11:23.965Z,16.50
2018-04-19T15:13:53.323Z,17.43
2018-04-19T15:16:22.713Z,18.10
2018-04-19T15:18:52.100Z,16.83
2018-04-19T15:21:21.466Z,16.20
2018-04-19T15:23:50.843Z,15.23
2018-04-19T15:26:20.212Z,16.03
2018-04-19T15:28:49.592Z,16.40
2018-04-19T15:31:18.954Z,15.97
2018-04-19T15:33:48.345Z,15.27
2018-04-19T15:36:17.699Z,16.70
2018-04-19T15:38:47.213Z,17.30
2018-04-19T15:41:16.686Z,15.97
2018-04-19T15:43:46.024Z,15.07
2018-04-19T15:46:15.411Z,15.33
2018-04-19T15:48:44.783Z,15.97
2018-04-19T15:51:14.188Z,17.40
2018-04-19T15:53:43.581Z,16.90
2018-04-19T15:56:12.952Z,17.30
2018-04-19T15:58:44.272Z,19.33
2018-04-19T16:01:13.640Z,17.60
2018-04-19T16:03:43.044Z,17.50
2018-04-19T16:06:12.440Z,19.20
2018-04-19T16:08:41.835Z,18.37
2018-04-19T16:11:11.229Z,18.30
2018-04-19T16:13:40.608Z,18.80
2018-04-19T16:16:09.972Z,19.20
2018-04-19T16:18:43.776Z,18.90
2018-04-19T16:21:13.256Z,16.27
2018-04-19T16:23:42.627Z,18.83
2018-04-19T16:26:12.006Z,18.53
2018-04-19T16:28:48.619Z,18.60
2018-04-19T16:31:10.779Z,16.60
2018-04-19T16:33:40.245Z,17.80
2018-04-19T16:36:09.607Z,16.90
2018-04-19T16:38:39.053Z,17.60
2018-04-19T16:41:08.384Z,17.20
2018-04-19T16:43:37.910Z,19.20
2018-04-19T16:46:08.793Z,16.40
2018-04-19T16:48:38.247Z,18.03
2018-04-19T16:51:07.601Z,16.10
2018-04-19T16:53:36.982Z,17.77
2018-04-19T16:56:06.348Z,16.50
2018-04-19T16:58:35.740Z,17.60
2018-04-19T17:01:05.104Z,15.07
2018-04-19T17:03:34.489Z,16.03
2018-04-19T17:06:03.916Z,17.13
2018-04-19T17:08:33.278Z,17.90
2018-04-19T17:11:02.635Z,18.50
2018-04-19T17:13:32.190Z,17.57
2018-04-19T17:16:01.547Z,18.20
2018-04-19T17:18:30.991Z,17.80
2018-04-19T17:21:00.364Z,17.97
2018-04-19T17:23:29.765Z,18.43
2018-04-19T17:25:59.157Z,16.90
2018-04-19T17:28:28.547Z,17.53
2018-04-19T17:30:57.905Z,16.47
2018-04-19T17:33:27.493Z,15.83
2018-04-19T17:35:56.851Z,17.37
2018-04-19T17:38:26.245Z,16.90
2018-04-19T17:40:55.620Z,18.13
2018-04-19T17:43:25.000Z,19.90
2018-04-19T17:45:54.379Z,19.67
2018-04-19T17:48:23.765Z,20.93
2018-04-19T17:50:53.149Z,17.83
2018-04-19T17:53:22.533Z,19.93
2018-04-19T17:55:51.887Z,19.20
2018-04-19T17:58:21.274Z,18.90
2018-04-19T18:00:50.659Z,18.97
2018-04-19T18:03:20.044Z,18.73
2018-04-19T18:05:49.421Z,18.93
2018-04-19T18:08:18.802Z,17.10
2018-04-19T18:10:48.179Z,17.47
2018-04-19T18:13:17.549Z,17.90
2018-04-19T18:15:46.916Z,18.60
2018-04-19T18:18:19.284Z,18.60
2018-04-19T18:20:48.657Z,18.17
2018-04-19T18:23:19.283Z,17.87
2018-04-19T18:25:48.652Z,17.70
2018-04-19T18:28:18.034Z,17.23
2018-04-19T18:30:47.400Z,17.10
2018-04-19T18:33:16.774Z,17.23
2018-04-19T18:35:46.146Z,17.27
2018-04-19T18:38:15.527Z,18.87
2018-04-19T18:40:44.892Z,18.77
2018-04-19T18:43:14.297Z,17.10
2018-04-19T18:45:43.661Z,20.37
2018-04-19T18:48:13.039Z,17.97
2018-04-19T18:50:42.402Z,16.43
2018-04-19T18:53:11.795Z,18.70
2018-04-19T18:55:41.155Z,18.20
2018-04-19T18:58:10.553Z,17.33
2018-04-19T19:00:39.903Z,16.10
2018-04-19T19:03:09.284Z,17.67
2018-04-19T19:05:38.735Z,17.00
2018-04-19T19:08:08.110Z,16.50
2018-04-19T19:10:37.497Z,17.73
2018-04-19T19:13:06.888Z,15.60
2018-04-19T19:15:51.127Z,15.50
2018-04-19T19:18:26.427Z,15.03
2018-04-19T19:20:55.781Z,13.33
2018-04-19T19:23:25.162Z,14.87
2018-04-19T19:25:54.536Z,13.30
2018-04-19T19:28:23.919Z,14.27
2018-04-19T19:30:53.291Z,16.50
2018-04-19T19:33:22.673Z,12.70
2018-04-19T19:35:52.031Z,12.70
2018-04-19T19:38:21.416Z,13.13
2018-04-19T19:40:50.779Z,13.80
2018-04-19T19:43:20.151Z,15.03
2018-04-19T19:45:49.521Z,15.63
2018-04-19T19:48:18.912Z,13.67
2018-04-19T19:50:48.272Z,16.00
2018-04-19T19:53:17.667Z,14.60
2018-04-19T19:55:47.037Z,13.67
2018-04-19T19:58:16.429Z,14.67
2018-04-19T20:00:45.787Z,14.13
2018-04-19T20:03:15.166Z,13.50
2018-04-19T20:05:45.523Z,14.57
2018-04-19T20:08:14.865Z,14.23
2018-04-19T20:10:44.251Z,14.57
2018-04-19T20:13:13.612Z,14.67
2018-04-19T20:15:42.995Z,13.43
2018-04-19T20:18:12.360Z,12.63
2018-04-19T20:20:41.768Z,12.00
2018-04-19T20:23:11.171Z,12.80
2018-04-19T20:25:40.549Z,13.27
2018-04-19T20:28:09.980Z,13.37
2018-04-19T20:30:39.411Z,12.20
2018-04-19T20:33:08.768Z,13.33
2018-04-19T20:35:38.154Z,13.80
2018-04-19T20:38:07.696Z,12.47
2018-04-19T20:40:37.074Z,12.03
2018-04-19T20:43:06.443Z,12.10
2018-04-19T20:45:35.833Z,12.23
2018-04-19T20:48:05.196Z,12.10
2018-04-19T20:50:34.588Z,12.77
2018-04-19T20:53:04.013Z,13.10
2018-04-19T20:55:33.404Z,13.20
2018-04-19T20:58:02.778Z,12.67
2018-04-19T21:00:32.189Z,12.87
2018-04-19T21:03:01.580Z,14.37
2018-04-19T21:05:30.960Z,13.13
2018-04-19T21:08:00.329Z,13.17
2018-04-19T21:10:29.725Z,13.17
2018-04-19T21:12:59.095Z,12.97
2018-04-19T21:15:28.480Z,12.93
2018-04-19T21:17:57.882Z,13.73
2018-04-19T21:20:27.252Z,14.37
2018-04-19T21:22:56.805Z,13.10
2018-04-19T21:25:26.189Z,11.73
2018-04-19T21:27:55.572Z,11.63
2018-04-19T21:30:24.961Z,12.70
2018-04-19T21:32:54.330Z,12.90
2018-04-19T21:35:23.832Z,13.70
2018-04-19T21:37:53.456Z,13.30
2018-04-19T21:40:22.882Z,13.90
2018-04-19T21:42:52.244Z,14.37
2018-04-19T21:45:21.670Z,13.60
2018-04-19T21:47:51.027Z,14.50
2018-04-19T21:50:20.420Z,13.20
2018-04-19T21:52:49.783Z,13.63
2018-04-19T21:55:19.177Z,14.10
2018-04-19T21:57:48.540Z,14.30
2018-04-19T22:00:17.919Z,14.10
2018-04-19T22:02:47.291Z,15.63
2018-04-19T22:05:16.663Z,14.40
2018-04-19T22:07:46.034Z,13.77
2018-04-19T22:10:15.420Z,14.67
2018-04-19T22:12:44.984Z,13.80
2018-04-19T22:15:14.372Z,12.53
2018-04-19T22:17:43.740Z,13.43
2018-04-19T22:20:13.129Z,14.40
2018-04-19T22:22:42.491Z,12.80
2018-04-19T22:25:11.880Z,14.43
2018-04-19T22:27:41.239Z,13.60
2018-04-19T22:30:10.619Z,14.37
2018-04-19T22:32:40.024Z,14.87
2018-04-19T22:35:09.396Z,14.73
2018-04-19T22:37:38.759Z,14.37
2018-04-19T22:40:08.152Z,14.10
2018-04-19T22:42:37.519Z,15.43
2018-04-19T22:45:06.946Z,14.67
2018-04-19T22:47:36.275Z,13.73
2018-04-19T22:50:05.665Z,15.80
2018-04-19T22:52:35.024Z,14.60
2018-04-19T22:55:04.417Z,15.30
2018-04-19T22:57:33.785Z,14.40
2018-04-19T23:00:03.168Z,14.43
2018-04-19T23:02:36.249Z,14.97
2018-04-19T23:05:05.632Z,13.60
2018-04-19T23:07:34.990Z,15.30
2018-04-19T23:10:04.385Z,15.07
2018-04-19T23:12:33.742Z,14.60
2018-04-19T23:15:03.471Z,15.30
2018-04-19T23:17:32.841Z,14.70
2018-04-19T23:20:02.306Z,15.03
2018-04-19T23:22:34.508Z,15.43
2018-04-19T23:25:03.945Z,14.20
2018-04-19T23:27:33.269Z,14.97
2018-04-19T23:30:02.650Z,15.40
2018-04-19T23:32:32.016Z,15.77
2018-04-19T23:35:01.408Z,15.33
2018-04-19T23:37:30.856Z,15.73
2018-04-19T23:40:00.249Z,15.30
2018-04-19T23:42:29.612Z,15.93
2018-04-19T23:44:59.000Z,16.50
2018-04-19T23:47:28.369Z,15.30
2018-04-19T23:49:57.748Z,16.17
2018-04-19T23:52:27.120Z,15.70
2018-04-19T23:54:56.494Z,16.67
2018-04-19T23:57:25.864Z,16.97
2018-04-19T23:59:55.260Z,16.53
